sensor_id;sensor_type;location;lat;lon;timestamp;temperature;humidity
18611;DHT22;9435;52.122;5.502;2024-03-22T00:02:25;10.80;99.90
18611;DHT22;9435;52.122;5.502;2024-03-22T00:04:51;10.90;99.90
18611;DHT22;9435;52.122;5.502;2024-03-22T00:07:18;10.90;99.90
18611;DHT22;9435;52.122;5.502;2024-03-22T00:09:44;10.90;99.90
18611;DHT22;9435;52.122;5.502;2024-03-22T00:12:11;11.00;99.90
18611;DHT22;9435;52.122;5.502;2024-03-22T00:14:37;11.00;99.90
18611;DHT22;9435;52.122;5.502;2024-03-22T00:17:05;11.00;99.90
18611;DHT22;9435;52.122;5.502;2024-03-22T00:19:31;11.00;99.90
18611;DHT22;9435;52.122;5.502;2024-03-22T00:21:58;11.10;99.90
18611;DHT22;9435;52.122;5.502;2024-03-22T00:24:24;11.10;99.90
18611;DHT22;9435;52.122;5.502;2024-03-22T00:26:51;11.10;99.90
18611;DHT22;9435;52.122;5.502;2024-03-22T00:29:17;11.10;99.90
18611;DHT22;9435;52.122;5.502;2024-03-22T00:31:44;11.00;99.90
18611;DHT22;9435;52.122;5.502;2024-03-22T00:34:12;11.10;99.90
18611;DHT22;9435;52.122;5.502;2024-03-22T00:36:39;11.10;99.90
18611;DHT22;9435;52.122;5.502;2024-03-22T00:39:05;11.10;99.90
18611;DHT22;9435;52.122;5.502;2024-03-22T00:41:32;11.10;99.90
18611;DHT22;9435;52.122;5.502;2024-03-22T00:43:58;11.10;99.90
18611;DHT22;9435;52.122;5.502;2024-03-22T00:46:25;11.10;99.90
18611;DHT22;9435;52.122;5.502;2024-03-22T00:48:51;11.00;99.90
18611;DHT22;9435;52.122;5.502;2024-03-22T00:51:20;11.10;99.90
18611;DHT22;9435;52.122;5.502;2024-03-22T00:53:46;11.10;99.90
18611;DHT22;9435;52.122;5.502;2024-03-22T00:56:13;11.10;99.90
18611;DHT22;9435;52.122;5.502;2024-03-22T00:58:39;11.10;99.90
18611;DHT22;9435;52.122;5.502;2024-03-22T01:01:06;11.00;99.90
18611;DHT22;9435;52.122;5.502;2024-03-22T01:03:32;11.10;99.90
18611;DHT22;9435;52.122;5.502;2024-03-22T01:05:59;11.10;99.90
18611;DHT22;9435;52.122;5.502;2024-03-22T01:08:26;11.10;99.90
18611;DHT22;9435;52.122;5.502;2024-03-22T01:10:53;11.10;99.90
18611;DHT22;9435;52.122;5.502;2024-03-22T01:13:19;11.10;99.90
18611;DHT22;9435;52.122;5.502;2024-03-22T01:15:46;11.10;99.90
18611;DHT22;9435;52.122;5.502;2024-03-22T01:18:13;11.10;99.90
18611;DHT22;9435;52.122;5.502;2024-03-22T01:20:40;11.10;99.90
18611;DHT22;9435;52.122;5.502;2024-03-22T01:23:08;11.10;99.90
18611;DHT22;9435;52.122;5.502;2024-03-22T01:25:36;11.10;99.90
18611;DHT22;9435;52.122;5.502;2024-03-22T01:28:02;11.10;99.90
18611;DHT22;9435;52.122;5.502;2024-03-22T01:30:30;11.10;99.90
18611;DHT22;9435;52.122;5.502;2024-03-22T01:32:56;11.10;99.90
18611;DHT22;9435;52.122;5.502;2024-03-22T01:35:23;11.10;99.90
18611;DHT22;9435;52.122;5.502;2024-03-22T01:37:49;11.10;99.90
18611;DHT22;9435;52.122;5.502;2024-03-22T01:40:16;11.00;99.90
18611;DHT22;9435;52.122;5.502;2024-03-22T01:42:44;11.10;99.90
18611;DHT22;9435;52.122;5.502;2024-03-22T01:45:11;11.10;99.90
18611;DHT22;9435;52.122;5.502;2024-03-22T01:47:39;11.10;99.90
18611;DHT22;9435;52.122;5.502;2024-03-22T01:50:08;11.10;99.90
18611;DHT22;9435;52.122;5.502;2024-03-22T01:52:35;11.10;99.90
18611;DHT22;9435;52.122;5.502;2024-03-22T01:55:03;11.20;99.90
18611;DHT22;9435;52.122;5.502;2024-03-22T01:57:32;11.20;99.90
18611;DHT22;9435;52.122;5.502;2024-03-22T02:00:01;11.20;99.90
18611;DHT22;9435;52.122;5.502;2024-03-22T02:02:28;11.20;99.90
18611;DHT22;9435;52.122;5.502;2024-03-22T02:04:56;11.20;99.90
18611;DHT22;9435;52.122;5.502;2024-03-22T02:07:22;11.20;99.90
18611;DHT22;9435;52.122;5.502;2024-03-22T02:09:49;11.10;99.90
18611;DHT22;9435;52.122;5.502;2024-03-22T02:12:15;11.20;99.90
18611;DHT22;9435;52.122;5.502;2024-03-22T02:14:43;11.20;99.90
18611;DHT22;9435;52.122;5.502;2024-03-22T02:17:11;11.20;99.90
18611;DHT22;9435;52.122;5.502;2024-03-22T02:19:38;11.20;99.90
18611;DHT22;9435;52.122;5.502;2024-03-22T02:22:04;11.30;99.90
18611;DHT22;9435;52.122;5.502;2024-03-22T02:24:32;11.20;99.90
18611;DHT22;9435;52.122;5.502;2024-03-22T02:26:58;11.20;99.90
18611;DHT22;9435;52.122;5.502;2024-03-22T02:29:25;11.30;99.90
18611;DHT22;9435;52.122;5.502;2024-03-22T02:31:52;11.20;99.90
18611;DHT22;9435;52.122;5.502;2024-03-22T02:34:19;11.30;99.90
18611;DHT22;9435;52.122;5.502;2024-03-22T02:36:45;11.30;99.90
18611;DHT22;9435;52.122;5.502;2024-03-22T02:39:12;11.30;99.90
18611;DHT22;9435;52.122;5.502;2024-03-22T02:41:39;11.30;99.90
18611;DHT22;9435;52.122;5.502;2024-03-22T02:44:06;11.30;99.90
18611;DHT22;9435;52.122;5.502;2024-03-22T02:46:32;11.30;99.90
18611;DHT22;9435;52.122;5.502;2024-03-22T02:49:00;11.30;99.90
18611;DHT22;9435;52.122;5.502;2024-03-22T02:51:26;11.30;99.90
18611;DHT22;9435;52.122;5.502;2024-03-22T02:53:53;11.20;99.90
18611;DHT22;9435;52.122;5.502;2024-03-22T02:56:19;11.20;99.90
18611;DHT22;9435;52.122;5.502;2024-03-22T02:58:49;11.20;99.90
18611;DHT22;9435;52.122;5.502;2024-03-22T03:01:15;11.20;99.90
18611;DHT22;9435;52.122;5.502;2024-03-22T03:03:42;11.10;99.90
18611;DHT22;9435;52.122;5.502;2024-03-22T03:06:08;11.10;99.90
18611;DHT22;9435;52.122;5.502;2024-03-22T03:08:35;11.10;99.90
18611;DHT22;9435;52.122;5.502;2024-03-22T03:11:01;11.10;99.90
18611;DHT22;9435;52.122;5.502;2024-03-22T03:13:28;11.10;99.90
18611;DHT22;9435;52.122;5.502;2024-03-22T03:15:56;11.00;99.90
18611;DHT22;9435;52.122;5.502;2024-03-22T03:18:23;11.00;99.90
18611;DHT22;9435;52.122;5.502;2024-03-22T03:20:49;10.90;99.90
18611;DHT22;9435;52.122;5.502;2024-03-22T03:23:17;10.90;99.90
18611;DHT22;9435;52.122;5.502;2024-03-22T03:25:43;10.90;99.90
18611;DHT22;9435;52.122;5.502;2024-03-22T03:28:10;10.80;99.90
18611;DHT22;9435;52.122;5.502;2024-03-22T03:30:36;10.80;99.90
18611;DHT22;9435;52.122;5.502;2024-03-22T03:33:04;10.80;99.90
18611;DHT22;9435;52.122;5.502;2024-03-22T03:35:31;10.80;99.90
18611;DHT22;9435;52.122;5.502;2024-03-22T03:37:58;10.70;99.90
18611;DHT22;9435;52.122;5.502;2024-03-22T03:40:24;10.70;99.90
18611;DHT22;9435;52.122;5.502;2024-03-22T03:42:53;10.70;99.90
18611;DHT22;9435;52.122;5.502;2024-03-22T03:45:19;10.70;99.90
18611;DHT22;9435;52.122;5.502;2024-03-22T03:47:46;10.70;99.90
18611;DHT22;9435;52.122;5.502;2024-03-22T03:50:14;10.60;99.90
18611;DHT22;9435;52.122;5.502;2024-03-22T03:52:41;10.70;99.90
18611;DHT22;9435;52.122;5.502;2024-03-22T03:55:07;10.60;99.90
18611;DHT22;9435;52.122;5.502;2024-03-22T03:57:34;10.60;99.90
18611;DHT22;9435;52.122;5.502;2024-03-22T04:00:00;10.60;99.90
18611;DHT22;9435;52.122;5.502;2024-03-22T04:02:28;10.60;99.90
18611;DHT22;9435;52.122;5.502;2024-03-22T04:04:54;10.60;99.90
18611;DHT22;9435;52.122;5.502;2024-03-22T04:07:22;10.50;99.90
18611;DHT22;9435;52.122;5.502;2024-03-22T04:09:48;10.50;99.90
18611;DHT22;9435;52.122;5.502;2024-03-22T04:12:15;10.50;99.90
18611;DHT22;9435;52.122;5.502;2024-03-22T04:14:41;10.50;99.90
18611;DHT22;9435;52.122;5.502;2024-03-22T04:17:08;10.40;99.90
18611;DHT22;9435;52.122;5.502;2024-03-22T04:19:34;10.40;99.90
18611;DHT22;9435;52.122;5.502;2024-03-22T04:22:02;10.40;99.90
18611;DHT22;9435;52.122;5.502;2024-03-22T04:24:29;10.40;99.90
18611;DHT22;9435;52.122;5.502;2024-03-22T04:26:56;10.40;99.90
18611;DHT22;9435;52.122;5.502;2024-03-22T04:29:22;10.40;99.90
18611;DHT22;9435;52.122;5.502;2024-03-22T04:31:49;10.40;99.90
18611;DHT22;9435;52.122;5.502;2024-03-22T04:34:15;10.40;99.90
18611;DHT22;9435;52.122;5.502;2024-03-22T04:36:42;10.40;99.90
18611;DHT22;9435;52.122;5.502;2024-03-22T04:39:09;10.40;99.90
18611;DHT22;9435;52.122;5.502;2024-03-22T04:41:39;10.40;99.90
18611;DHT22;9435;52.122;5.502;2024-03-22T04:44:06;10.40;99.90
18611;DHT22;9435;52.122;5.502;2024-03-22T04:46:33;10.30;99.90
18611;DHT22;9435;52.122;5.502;2024-03-22T04:49:00;10.40;99.90
18611;DHT22;9435;52.122;5.502;2024-03-22T04:51:26;10.30;99.90
18611;DHT22;9435;52.122;5.502;2024-03-22T04:53:53;10.30;99.90
18611;DHT22;9435;52.122;5.502;2024-03-22T04:56:19;10.30;99.90
18611;DHT22;9435;52.122;5.502;2024-03-22T04:58:48;10.30;99.90
18611;DHT22;9435;52.122;5.502;2024-03-22T05:01:14;10.30;99.90
18611;DHT22;9435;52.122;5.502;2024-03-22T05:03:41;10.30;99.90
18611;DHT22;9435;52.122;5.502;2024-03-22T05:06:07;10.30;99.90
18611;DHT22;9435;52.122;5.502;2024-03-22T05:08:34;10.30;99.90
18611;DHT22;9435;52.122;5.502;2024-03-22T05:11:00;10.20;99.90
18611;DHT22;9435;52.122;5.502;2024-03-22T05:13:27;10.30;99.90
18611;DHT22;9435;52.122;5.502;2024-03-22T05:15:54;10.30;99.90
18611;DHT22;9435;52.122;5.502;2024-03-22T05:18:21;10.30;99.90
18611;DHT22;9435;52.122;5.502;2024-03-22T05:20:48;10.30;99.90
18611;DHT22;9435;52.122;5.502;2024-03-22T05:23:15;10.30;99.90
18611;DHT22;9435;52.122;5.502;2024-03-22T05:25:42;10.30;99.90
18611;DHT22;9435;52.122;5.502;2024-03-22T05:28:09;10.30;99.90
18611;DHT22;9435;52.122;5.502;2024-03-22T05:30:35;10.20;99.90
18611;DHT22;9435;52.122;5.502;2024-03-22T05:33:03;10.30;99.90
18611;DHT22;9435;52.122;5.502;2024-03-22T05:35:30;10.20;99.90
18611;DHT22;9435;52.122;5.502;2024-03-22T05:37:57;10.30;99.90
18611;DHT22;9435;52.122;5.502;2024-03-22T05:40:23;10.20;99.90
18611;DHT22;9435;52.122;5.502;2024-03-22T05:42:50;10.20;99.90
18611;DHT22;9435;52.122;5.502;2024-03-22T05:45:16;10.20;99.90
18611;DHT22;9435;52.122;5.502;2024-03-22T05:47:43;10.20;99.90
18611;DHT22;9435;52.122;5.502;2024-03-22T05:50:11;10.20;99.90
18611;DHT22;9435;52.122;5.502;2024-03-22T05:52:40;10.20;99.90
18611;DHT22;9435;52.122;5.502;2024-03-22T05:55:06;10.10;99.90
18611;DHT22;9435;52.122;5.502;2024-03-22T05:57:33;10.10;99.90
18611;DHT22;9435;52.122;5.502;2024-03-22T05:59:59;10.10;99.90
18611;DHT22;9435;52.122;5.502;2024-03-22T06:02:27;10.20;99.90
18611;DHT22;9435;52.122;5.502;2024-03-22T06:04:53;10.10;99.90
18611;DHT22;9435;52.122;5.502;2024-03-22T06:07:22;10.10;99.90
18611;DHT22;9435;52.122;5.502;2024-03-22T06:09:48;10.10;99.90
18611;DHT22;9435;52.122;5.502;2024-03-22T06:12:16;10.20;99.90
18611;DHT22;9435;52.122;5.502;2024-03-22T06:14:42;10.20;99.90
18611;DHT22;9435;52.122;5.502;2024-03-22T06:17:10;10.20;99.90
18611;DHT22;9435;52.122;5.502;2024-03-22T06:19:36;10.20;99.90
18611;DHT22;9435;52.122;5.502;2024-03-22T06:22:04;10.20;99.90
18611;DHT22;9435;52.122;5.502;2024-03-22T06:24:32;10.20;99.90
18611;DHT22;9435;52.122;5.502;2024-03-22T06:26:59;10.20;99.90
18611;DHT22;9435;52.122;5.502;2024-03-22T06:29:26;10.20;99.90
18611;DHT22;9435;52.122;5.502;2024-03-22T06:31:53;10.20;99.90
18611;DHT22;9435;52.122;5.502;2024-03-22T06:34:19;10.20;99.90
18611;DHT22;9435;52.122;5.502;2024-03-22T06:36:46;10.20;99.90
18611;DHT22;9435;52.122;5.502;2024-03-22T06:39:13;10.20;99.90
18611;DHT22;9435;52.122;5.502;2024-03-22T06:41:41;10.20;99.90
18611;DHT22;9435;52.122;5.502;2024-03-22T06:44:07;10.30;99.90
18611;DHT22;9435;52.122;5.502;2024-03-22T06:46:37;10.30;99.90
18611;DHT22;9435;52.122;5.502;2024-03-22T06:49:03;10.30;99.90
18611;DHT22;9435;52.122;5.502;2024-03-22T06:51:30;10.30;99.90
18611;DHT22;9435;52.122;5.502;2024-03-22T06:53:56;10.30;99.90
18611;DHT22;9435;52.122;5.502;2024-03-22T06:56:23;10.40;99.90
18611;DHT22;9435;52.122;5.502;2024-03-22T06:58:53;10.40;99.90
18611;DHT22;9435;52.122;5.502;2024-03-22T07:01:24;10.40;99.90
18611;DHT22;9435;52.122;5.502;2024-03-22T07:03:50;10.40;99.90
18611;DHT22;9435;52.122;5.502;2024-03-22T07:06:18;10.50;99.90
18611;DHT22;9435;52.122;5.502;2024-03-22T07:08:44;10.50;99.90
18611;DHT22;9435;52.122;5.502;2024-03-22T07:11:11;10.60;99.90
18611;DHT22;9435;52.122;5.502;2024-03-22T07:13:37;10.60;99.90
18611;DHT22;9435;52.122;5.502;2024-03-22T07:16:06;10.60;99.90
18611;DHT22;9435;52.122;5.502;2024-03-22T07:18:32;10.60;99.90
18611;DHT22;9435;52.122;5.502;2024-03-22T07:20:59;10.60;99.90
18611;DHT22;9435;52.122;5.502;2024-03-22T07:23:27;10.60;99.90
18611;DHT22;9435;52.122;5.502;2024-03-22T07:25:54;10.60;99.90
18611;DHT22;9435;52.122;5.502;2024-03-22T07:28:20;10.60;99.90
18611;DHT22;9435;52.122;5.502;2024-03-22T07:30:47;10.70;99.90
18611;DHT22;9435;52.122;5.502;2024-03-22T07:33:14;10.60;99.90
18611;DHT22;9435;52.122;5.502;2024-03-22T07:35:43;10.70;99.90
18611;DHT22;9435;52.122;5.502;2024-03-22T07:38:09;10.70;99.90
18611;DHT22;9435;52.122;5.502;2024-03-22T07:40:37;10.70;99.90
18611;DHT22;9435;52.122;5.502;2024-03-22T07:43:03;10.70;99.90
18611;DHT22;9435;52.122;5.502;2024-03-22T07:45:32;10.60;99.90
18611;DHT22;9435;52.122;5.502;2024-03-22T07:47:58;10.60;99.90
18611;DHT22;9435;52.122;5.502;2024-03-22T07:50:27;10.70;99.90
18611;DHT22;9435;52.122;5.502;2024-03-22T07:52:53;10.60;99.90
18611;DHT22;9435;52.122;5.502;2024-03-22T07:55:21;10.60;99.90
18611;DHT22;9435;52.122;5.502;2024-03-22T07:57:47;10.70;99.90
18611;DHT22;9435;52.122;5.502;2024-03-22T08:00:15;10.60;99.90
18611;DHT22;9435;52.122;5.502;2024-03-22T08:02:41;10.60;99.90
18611;DHT22;9435;52.122;5.502;2024-03-22T08:05:09;10.70;99.90
18611;DHT22;9435;52.122;5.502;2024-03-22T08:07:36;10.60;99.90
18611;DHT22;9435;52.122;5.502;2024-03-22T08:10:04;10.60;99.90
18611;DHT22;9435;52.122;5.502;2024-03-22T08:12:30;10.60;99.90
18611;DHT22;9435;52.122;5.502;2024-03-22T08:14:57;10.60;99.90
18611;DHT22;9435;52.122;5.502;2024-03-22T08:17:23;10.70;99.90
18611;DHT22;9435;52.122;5.502;2024-03-22T08:19:51;10.70;99.90
18611;DHT22;9435;52.122;5.502;2024-03-22T08:22:17;10.60;99.90
18611;DHT22;9435;52.122;5.502;2024-03-22T08:24:45;10.70;99.90
18611;DHT22;9435;52.122;5.502;2024-03-22T08:27:11;10.70;99.90
18611;DHT22;9435;52.122;5.502;2024-03-22T08:29:40;10.70;99.90
18611;DHT22;9435;52.122;5.502;2024-03-22T08:32:07;10.70;99.90
18611;DHT22;9435;52.122;5.502;2024-03-22T08:34:34;10.70;99.90
18611;DHT22;9435;52.122;5.502;2024-03-22T08:37:00;10.70;99.90
18611;DHT22;9435;52.122;5.502;2024-03-22T08:39:29;10.70;99.90
18611;DHT22;9435;52.122;5.502;2024-03-22T08:41:57;10.70;99.90
18611;DHT22;9435;52.122;5.502;2024-03-22T08:44:24;10.60;99.90
18611;DHT22;9435;52.122;5.502;2024-03-22T08:46:50;10.60;99.90
18611;DHT22;9435;52.122;5.502;2024-03-22T08:49:17;10.60;99.90
18611;DHT22;9435;52.122;5.502;2024-03-22T08:51:44;10.60;99.90
18611;DHT22;9435;52.122;5.502;2024-03-22T08:54:13;10.60;99.90
18611;DHT22;9435;52.122;5.502;2024-03-22T08:56:40;10.60;99.90
18611;DHT22;9435;52.122;5.502;2024-03-22T08:59:08;10.60;99.90
18611;DHT22;9435;52.122;5.502;2024-03-22T09:01:35;10.60;99.90
18611;DHT22;9435;52.122;5.502;2024-03-22T09:04:03;10.60;99.90
18611;DHT22;9435;52.122;5.502;2024-03-22T09:06:29;10.60;99.90
18611;DHT22;9435;52.122;5.502;2024-03-22T09:08:57;10.60;99.90
18611;DHT22;9435;52.122;5.502;2024-03-22T09:11:23;10.60;99.90
18611;DHT22;9435;52.122;5.502;2024-03-22T09:13:52;10.60;99.90
18611;DHT22;9435;52.122;5.502;2024-03-22T09:16:19;10.70;99.90
18611;DHT22;9435;52.122;5.502;2024-03-22T09:18:46;10.70;99.90
18611;DHT22;9435;52.122;5.502;2024-03-22T09:21:12;10.60;99.90
18611;DHT22;9435;52.122;5.502;2024-03-22T09:23:39;10.60;99.90
18611;DHT22;9435;52.122;5.502;2024-03-22T09:26:05;10.60;99.90
18611;DHT22;9435;52.122;5.502;2024-03-22T09:28:33;10.70;99.90
18611;DHT22;9435;52.122;5.502;2024-03-22T09:31:03;10.70;99.90
18611;DHT22;9435;52.122;5.502;2024-03-22T09:33:32;10.70;99.90
18611;DHT22;9435;52.122;5.502;2024-03-22T09:35:58;10.80;99.90
18611;DHT22;9435;52.122;5.502;2024-03-22T09:38:26;10.80;99.90
18611;DHT22;9435;52.122;5.502;2024-03-22T09:40:52;10.80;99.90
18611;DHT22;9435;52.122;5.502;2024-03-22T09:43:21;10.80;99.90
18611;DHT22;9435;52.122;5.502;2024-03-22T09:45:48;10.90;99.90
18611;DHT22;9435;52.122;5.502;2024-03-22T09:48:18;10.80;99.90
18611;DHT22;9435;52.122;5.502;2024-03-22T09:50:46;10.80;99.90
18611;DHT22;9435;52.122;5.502;2024-03-22T09:53:14;10.80;99.90
18611;DHT22;9435;52.122;5.502;2024-03-22T09:55:45;10.80;99.90
18611;DHT22;9435;52.122;5.502;2024-03-22T09:58:12;10.90;99.90
18611;DHT22;9435;52.122;5.502;2024-03-22T10:00:38;10.90;99.90
18611;DHT22;9435;52.122;5.502;2024-03-22T10:03:06;10.90;99.90
18611;DHT22;9435;52.122;5.502;2024-03-22T10:05:33;10.90;99.90
18611;DHT22;9435;52.122;5.502;2024-03-22T10:08:02;10.90;99.90
18611;DHT22;9435;52.122;5.502;2024-03-22T10:10:29;10.90;99.90
18611;DHT22;9435;52.122;5.502;2024-03-22T10:12:56;10.90;99.90
18611;DHT22;9435;52.122;5.502;2024-03-22T10:15:23;10.90;99.90
18611;DHT22;9435;52.122;5.502;2024-03-22T10:17:52;10.90;99.90
18611;DHT22;9435;52.122;5.502;2024-03-22T10:20:20;10.80;99.90
18611;DHT22;9435;52.122;5.502;2024-03-22T10:22:49;10.90;99.90
18611;DHT22;9435;52.122;5.502;2024-03-22T10:25:22;10.90;99.90
18611;DHT22;9435;52.122;5.502;2024-03-22T10:27:50;10.90;99.90
18611;DHT22;9435;52.122;5.502;2024-03-22T10:30:16;10.90;99.90
18611;DHT22;9435;52.122;5.502;2024-03-22T10:32:44;10.90;99.90
18611;DHT22;9435;52.122;5.502;2024-03-22T10:35:12;11.00;99.90
18611;DHT22;9435;52.122;5.502;2024-03-22T10:37:39;11.00;99.90
18611;DHT22;9435;52.122;5.502;2024-03-22T10:40:07;11.00;99.90
18611;DHT22;9435;52.122;5.502;2024-03-22T10:42:37;11.00;99.90
18611;DHT22;9435;52.122;5.502;2024-03-22T10:45:04;11.00;99.90
18611;DHT22;9435;52.122;5.502;2024-03-22T10:47:33;11.00;99.90
18611;DHT22;9435;52.122;5.502;2024-03-22T10:50:04;11.00;99.90
18611;DHT22;9435;52.122;5.502;2024-03-22T10:52:34;11.00;99.90
18611;DHT22;9435;52.122;5.502;2024-03-22T10:55:03;11.00;99.90
18611;DHT22;9435;52.122;5.502;2024-03-22T10:57:32;11.00;99.90
18611;DHT22;9435;52.122;5.502;2024-03-22T11:00:04;11.00;99.90
18611;DHT22;9435;52.122;5.502;2024-03-22T11:02:35;11.00;99.90
18611;DHT22;9435;52.122;5.502;2024-03-22T11:05:04;10.90;99.90
18611;DHT22;9435;52.122;5.502;2024-03-22T11:07:32;11.00;99.90
18611;DHT22;9435;52.122;5.502;2024-03-22T11:10:01;11.00;99.90
18611;DHT22;9435;52.122;5.502;2024-03-22T11:12:29;11.00;99.90
18611;DHT22;9435;52.122;5.502;2024-03-22T11:14:59;11.10;99.90
18611;DHT22;9435;52.122;5.502;2024-03-22T11:17:27;11.20;99.90
18611;DHT22;9435;52.122;5.502;2024-03-22T11:19:53;11.20;99.90
18611;DHT22;9435;52.122;5.502;2024-03-22T11:22:20;11.20;99.90
18611;DHT22;9435;52.122;5.502;2024-03-22T11:24:46;11.20;99.90
18611;DHT22;9435;52.122;5.502;2024-03-22T11:27:13;11.30;99.90
18611;DHT22;9435;52.122;5.502;2024-03-22T11:29:40;11.30;99.90
18611;DHT22;9435;52.122;5.502;2024-03-22T11:32:09;11.40;99.90
18611;DHT22;9435;52.122;5.502;2024-03-22T11:34:37;11.50;99.90
18611;DHT22;9435;52.122;5.502;2024-03-22T11:37:06;11.60;99.90
18611;DHT22;9435;52.122;5.502;2024-03-22T11:39:33;11.50;99.90
18611;DHT22;9435;52.122;5.502;2024-03-22T11:42:01;11.60;99.90
18611;DHT22;9435;52.122;5.502;2024-03-22T11:44:30;11.50;99.90
18611;DHT22;9435;52.122;5.502;2024-03-22T11:47:00;11.50;99.90
18611;DHT22;9435;52.122;5.502;2024-03-22T11:49:26;11.50;99.90
18611;DHT22;9435;52.122;5.502;2024-03-22T11:51:56;11.50;99.90
18611;DHT22;9435;52.122;5.502;2024-03-22T11:54:22;11.50;99.90
18611;DHT22;9435;52.122;5.502;2024-03-22T11:56:49;11.50;99.90
18611;DHT22;9435;52.122;5.502;2024-03-22T11:59:17;11.50;99.90
18611;DHT22;9435;52.122;5.502;2024-03-22T12:01:45;11.50;99.90
18611;DHT22;9435;52.122;5.502;2024-03-22T12:04:12;11.50;99.90
18611;DHT22;9435;52.122;5.502;2024-03-22T12:06:41;11.40;99.90
18611;DHT22;9435;52.122;5.502;2024-03-22T12:09:09;11.40;99.90
18611;DHT22;9435;52.122;5.502;2024-03-22T12:11:38;11.40;99.90
18611;DHT22;9435;52.122;5.502;2024-03-22T12:14:04;11.40;99.90
18611;DHT22;9435;52.122;5.502;2024-03-22T12:16:31;11.40;99.90
18611;DHT22;9435;52.122;5.502;2024-03-22T12:18:57;11.40;99.90
18611;DHT22;9435;52.122;5.502;2024-03-22T12:21:25;11.30;99.90
18611;DHT22;9435;52.122;5.502;2024-03-22T12:23:51;11.30;99.90
18611;DHT22;9435;52.122;5.502;2024-03-22T12:26:19;11.30;99.90
18611;DHT22;9435;52.122;5.502;2024-03-22T12:28:45;11.30;99.90
18611;DHT22;9435;52.122;5.502;2024-03-22T12:31:12;11.30;99.90
18611;DHT22;9435;52.122;5.502;2024-03-22T12:33:39;11.30;99.90
18611;DHT22;9435;52.122;5.502;2024-03-22T12:36:06;11.30;99.90
18611;DHT22;9435;52.122;5.502;2024-03-22T12:38:32;11.30;99.90
18611;DHT22;9435;52.122;5.502;2024-03-22T12:40:59;11.40;99.90
18611;DHT22;9435;52.122;5.502;2024-03-22T12:43:26;11.40;99.90
18611;DHT22;9435;52.122;5.502;2024-03-22T12:45:53;11.40;99.90
18611;DHT22;9435;52.122;5.502;2024-03-22T12:48:20;11.40;99.90
18611;DHT22;9435;52.122;5.502;2024-03-22T12:50:47;11.40;99.90
18611;DHT22;9435;52.122;5.502;2024-03-22T12:53:13;11.40;99.90
18611;DHT22;9435;52.122;5.502;2024-03-22T12:55:40;11.40;99.90
18611;DHT22;9435;52.122;5.502;2024-03-22T12:58:06;11.40;99.90
18611;DHT22;9435;52.122;5.502;2024-03-22T13:00:35;11.40;99.90
18611;DHT22;9435;52.122;5.502;2024-03-22T13:03:01;11.40;99.90
18611;DHT22;9435;52.122;5.502;2024-03-22T13:05:28;11.30;99.90
18611;DHT22;9435;52.122;5.502;2024-03-22T13:07:56;11.30;99.90
18611;DHT22;9435;52.122;5.502;2024-03-22T13:10:23;11.20;99.90
18611;DHT22;9435;52.122;5.502;2024-03-22T13:12:49;11.30;99.90
18611;DHT22;9435;52.122;5.502;2024-03-22T13:15:16;11.30;99.90
18611;DHT22;9435;52.122;5.502;2024-03-22T13:17:43;11.40;99.90
18611;DHT22;9435;52.122;5.502;2024-03-22T13:20:11;11.40;99.90
18611;DHT22;9435;52.122;5.502;2024-03-22T13:22:40;11.40;99.90
18611;DHT22;9435;52.122;5.502;2024-03-22T13:25:07;11.40;99.90
18611;DHT22;9435;52.122;5.502;2024-03-22T13:27:36;11.40;99.90
18611;DHT22;9435;52.122;5.502;2024-03-22T13:30:06;11.30;99.90
18611;DHT22;9435;52.122;5.502;2024-03-22T13:32:35;11.20;99.90
18611;DHT22;9435;52.122;5.502;2024-03-22T13:35:05;11.20;99.90
18611;DHT22;9435;52.122;5.502;2024-03-22T13:37:31;11.30;99.90
18611;DHT22;9435;52.122;5.502;2024-03-22T13:39:58;11.30;99.90
18611;DHT22;9435;52.122;5.502;2024-03-22T13:42:25;11.30;99.90
18611;DHT22;9435;52.122;5.502;2024-03-22T13:44:52;11.30;99.90
18611;DHT22;9435;52.122;5.502;2024-03-22T13:47:18;11.30;99.90
18611;DHT22;9435;52.122;5.502;2024-03-22T13:49:45;11.30;99.90
18611;DHT22;9435;52.122;5.502;2024-03-22T13:52:13;11.30;99.90
18611;DHT22;9435;52.122;5.502;2024-03-22T13:54:40;11.30;99.90
18611;DHT22;9435;52.122;5.502;2024-03-22T13:57:06;11.30;99.90
18611;DHT22;9435;52.122;5.502;2024-03-22T13:59:33;11.40;99.90
18611;DHT22;9435;52.122;5.502;2024-03-22T14:02:00;11.30;99.90
18611;DHT22;9435;52.122;5.502;2024-03-22T14:04:27;11.30;99.90
18611;DHT22;9435;52.122;5.502;2024-03-22T14:06:54;11.30;99.90
18611;DHT22;9435;52.122;5.502;2024-03-22T14:09:23;11.40;99.90
18611;DHT22;9435;52.122;5.502;2024-03-22T14:11:49;11.30;99.90
18611;DHT22;9435;52.122;5.502;2024-03-22T14:14:16;11.30;99.90
18611;DHT22;9435;52.122;5.502;2024-03-22T14:16:42;11.20;99.90
18611;DHT22;9435;52.122;5.502;2024-03-22T14:19:10;11.30;99.90
18611;DHT22;9435;52.122;5.502;2024-03-22T14:21:36;11.20;99.90
18611;DHT22;9435;52.122;5.502;2024-03-22T14:24:04;11.20;99.90
18611;DHT22;9435;52.122;5.502;2024-03-22T14:26:31;11.10;99.90
18611;DHT22;9435;52.122;5.502;2024-03-22T14:28:58;11.10;99.90
18611;DHT22;9435;52.122;5.502;2024-03-22T14:31:25;11.10;99.90
18611;DHT22;9435;52.122;5.502;2024-03-22T14:33:52;11.10;99.90
18611;DHT22;9435;52.122;5.502;2024-03-22T14:36:18;11.10;99.90
18611;DHT22;9435;52.122;5.502;2024-03-22T14:38:45;11.10;99.90
18611;DHT22;9435;52.122;5.502;2024-03-22T14:41:12;11.10;99.90
18611;DHT22;9435;52.122;5.502;2024-03-22T14:43:40;11.10;99.90
18611;DHT22;9435;52.122;5.502;2024-03-22T14:46:06;11.10;99.90
18611;DHT22;9435;52.122;5.502;2024-03-22T14:48:33;11.00;99.90
18611;DHT22;9435;52.122;5.502;2024-03-22T14:50:59;11.10;99.90
18611;DHT22;9435;52.122;5.502;2024-03-22T14:53:26;11.10;99.90
18611;DHT22;9435;52.122;5.502;2024-03-22T14:55:53;11.00;99.90
18611;DHT22;9435;52.122;5.502;2024-03-22T14:58:23;11.10;99.90
18611;DHT22;9435;52.122;5.502;2024-03-22T15:00:55;11.10;99.90
18611;DHT22;9435;52.122;5.502;2024-03-22T15:03:22;11.10;99.90
18611;DHT22;9435;52.122;5.502;2024-03-22T15:05:50;11.10;99.90
18611;DHT22;9435;52.122;5.502;2024-03-22T15:08:17;11.00;99.90
18611;DHT22;9435;52.122;5.502;2024-03-22T15:10:43;11.00;99.90
18611;DHT22;9435;52.122;5.502;2024-03-22T15:13:11;10.90;99.90
18611;DHT22;9435;52.122;5.502;2024-03-22T15:15:37;10.90;99.90
18611;DHT22;9435;52.122;5.502;2024-03-22T15:18:06;10.80;99.90
18611;DHT22;9435;52.122;5.502;2024-03-22T15:20:33;10.80;99.90
18611;DHT22;9435;52.122;5.502;2024-03-22T15:23:00;10.90;99.90
18611;DHT22;9435;52.122;5.502;2024-03-22T15:25:26;10.90;99.90
18611;DHT22;9435;52.122;5.502;2024-03-22T15:27:54;11.00;99.90
18611;DHT22;9435;52.122;5.502;2024-03-22T15:30:21;11.00;99.90
18611;DHT22;9435;52.122;5.502;2024-03-22T15:32:48;11.00;99.90
18611;DHT22;9435;52.122;5.502;2024-03-22T15:35:16;11.00;99.90
18611;DHT22;9435;52.122;5.502;2024-03-22T15:37:45;10.80;99.90
18611;DHT22;9435;52.122;5.502;2024-03-22T15:40:11;10.80;99.90
18611;DHT22;9435;52.122;5.502;2024-03-22T15:42:39;10.60;99.90
18611;DHT22;9435;52.122;5.502;2024-03-22T15:45:05;10.70;99.90